Time;durP1;ratioP1;P1;durP2;ratioP2;P2;SDS_P1;SDS_P2;PMS_P1;PMS_P2;Temp;Humidity;BMP_temperature;BMP_pressure;BME280_temperature;BME280_humidity;BME280_pressure;Samples;Min_cycle;Max_cycle;Signal;HPM_P1;HPM_P2
2021/01/12 00:01:45;;;;;;;18.57;12.70;;;;;;;-0.42;73.85;96482.06;5090872;28;20165;-56
2021/01/12 00:04:11;;;;;;;22.43;13.27;;;;;;;-0.40;73.95;96480.13;5090965;28;20682;-56
2021/01/12 00:06:37;;;;;;;19.97;13.07;;;;;;;-0.29;72.88;96485.81;5090258;28;20170;-59
2021/01/12 00:09:04;;;;;;;19.30;11.70;;;;;;;-0.48;73.85;96472.34;5090658;28;20435;-59
2021/01/12 00:11:30;;;;;;;18.57;13.03;;;;;;;-0.40;73.60;96473.19;5090748;28;20461;-57
2021/01/12 00:13:56;;;;;;;15.97;11.10;;;;;;;-0.49;73.86;96468.94;5104797;28;20462;-57
2021/01/12 00:16:21;;;;;;;20.87;13.07;;;;;;;-0.69;74.62;96469.38;5093214;28;20176;-59
2021/01/12 00:18:47;;;;;;;15.77;11.00;;;;;;;-0.64;75.47;96459.38;5090124;28;20203;-59
2021/01/12 00:21:14;;;;;;;19.57;13.67;;;;;;;-0.66;75.03;96445.84;5090590;28;20198;-59
2021/01/12 00:23:39;;;;;;;26.70;13.60;;;;;;;-0.48;74.20;96439.63;5103964;28;20426;-57
2021/01/12 00:26:08;;;;;;;20.07;11.93;;;;;;;-0.47;73.63;96450.78;5110897;28;20482;-58
2021/01/12 00:28:35;;;;;;;18.57;11.87;;;;;;;-0.59;74.31;96445.06;5103688;28;20169;-56
2021/01/12 00:31:04;;;;;;;18.60;13.60;;;;;;;-0.59;74.87;96439.09;5096161;28;20938;-60
2021/01/12 00:33:33;;;;;;;15.87;11.80;;;;;;;-0.38;74.11;96434.34;5093827;28;20486;-59
2021/01/12 00:36:06;;;;;;;18.43;12.80;;;;;;;-0.41;74.12;96438.03;5094895;28;20418;-56
2021/01/12 00:38:32;;;;;;;20.50;12.50;;;;;;;-0.53;74.53;96420.41;5096597;28;20438;-60
2021/01/12 00:40:58;;;;;;;19.40;12.83;;;;;;;-0.85;75.26;96421.06;5114232;28;20430;-61
2021/01/12 00:43:25;;;;;;;20.47;12.90;;;;;;;-0.76;75.30;96399.53;5105980;28;20465;-66
2021/01/12 00:45:51;;;;;;;17.40;12.40;;;;;;;-0.98;76.24;96400.09;5093721;28;20189;-57
2021/01/12 00:48:16;;;;;;;20.70;13.70;;;;;;;-0.65;75.85;96406.97;5093849;28;20427;-64
2021/01/12 00:50:41;;;;;;;24.17;14.63;;;;;;;-0.61;75.42;96392.00;5093576;28;20793;-56
2021/01/12 00:53:07;;;;;;;18.37;12.80;;;;;;;-0.57;74.42;96391.56;5093555;28;20174;-57
2021/01/12 00:55:32;;;;;;;18.80;12.97;;;;;;;-0.69;75.20;96390.19;5096307;28;20176;-56
2021/01/12 00:57:58;;;;;;;20.27;12.70;;;;;;;-0.70;75.66;96391.19;5098432;28;20178;-57
2021/01/12 01:00:23;;;;;;;19.40;13.30;;;;;;;-0.69;74.91;96387.63;5093712;28;20242;-56
2021/01/12 01:02:49;;;;;;;18.37;13.13;;;;;;;-0.55;74.88;96391.38;5093841;28;20200;-64
2021/01/12 01:05:15;;;;;;;17.50;10.37;;;;;;;-0.78;76.68;96404.03;5093985;28;20528;-64
2021/01/12 01:07:40;;;;;;;18.40;13.63;;;;;;;-0.58;75.32;96402.81;5093839;28;20433;-56
2021/01/12 01:10:06;;;;;;;22.40;14.00;;;;;;;-0.73;76.64;96398.41;5100069;28;20227;-56
2021/01/12 01:12:31;;;;;;;18.93;12.87;;;;;;;-0.89;77.10;96398.34;5100621;28;20179;-57
2021/01/12 01:14:57;;;;;;;19.30;12.50;;;;;;;-0.75;77.40;96398.56;5093260;28;20814;-56
2021/01/12 01:17:22;;;;;;;15.47;12.27;;;;;;;-0.75;77.32;96397.75;5104211;28;20184;-57
2021/01/12 01:19:47;;;;;;;18.43;12.60;;;;;;;-0.70;76.56;96401.50;5113637;28;20207;-64
2021/01/12 01:22:13;;;;;;;18.40;11.80;;;;;;;-0.63;76.53;96394.75;5112059;28;20206;-56
2021/01/12 01:24:38;;;;;;;16.27;11.80;;;;;;;-0.62;77.04;96398.97;5113843;28;20221;-61
2021/01/12 01:27:03;;;;;;;17.13;10.33;;;;;;;-0.88;78.34;96411.09;5113268;28;20646;-64
2021/01/12 01:29:29;;;;;;;17.93;10.80;;;;;;;-0.91;78.10;96408.00;5113926;28;20196;-64
2021/01/12 01:31:54;;;;;;;15.90;12.00;;;;;;;-0.79;78.79;96412.75;5103818;28;20270;-63
2021/01/12 01:34:19;;;;;;;16.53;11.60;;;;;;;-0.70;78.31;96409.22;5094118;28;20201;-56
2021/01/12 01:36:45;;;;;;;15.00;10.83;;;;;;;-0.86;78.72;96398.84;5091466;28;20181;-55
2021/01/12 01:39:10;;;;;;;15.70;11.10;;;;;;;-0.75;78.05;96406.31;5093356;28;20172;-56
2021/01/12 01:41:36;;;;;;;19.70;12.60;;;;;;;-0.79;78.81;96402.41;5093327;28;20181;-56
2021/01/12 01:44:02;;;;;;;16.43;11.77;;;;;;;-0.87;79.29;96399.00;5093043;28;20164;-64
2021/01/12 01:46:28;;;;;;;16.97;9.90;;;;;;;-0.87;80.25;96397.22;5101051;28;20210;-56
2021/01/12 01:48:53;;;;;;;14.30;9.73;;;;;;;-0.73;79.98;96395.84;5111727;28;20453;-64
2021/01/12 01:51:19;;;;;;;15.93;10.10;;;;;;;-0.70;79.27;96388.59;5106574;28;20246;-64
2021/01/12 01:53:46;;;;;;;14.87;9.27;;;;;;;-0.76;79.88;96393.59;5093124;28;20205;-64
2021/01/12 01:56:11;;;;;;;18.40;11.30;;;;;;;-0.49;79.29;96396.72;5093042;28;20645;-58
2021/01/12 01:58:41;;;;;;;17.23;10.30;;;;;;;-0.61;80.15;96387.66;5092914;28;20422;-63
2021/01/12 02:01:07;;;;;;;18.27;10.47;;;;;;;-0.60;79.71;96375.59;5096821;28;20720;-56
2021/01/12 02:03:41;;;;;;;14.20;10.20;;;;;;;-0.62;79.55;96378.31;5096857;28;20491;-64
2021/01/12 02:06:32;;;;;;;12.17;9.37;;;;;;;-0.57;80.07;96375.25;5097860;28;20971;-56
2021/01/12 02:09:09;;;;;;;15.17;10.60;;;;;;;-0.41;78.98;96368.38;5096815;28;20438;-56
2021/01/12 02:11:40;;;;;;;13.20;9.40;;;;;;;-0.28;78.80;96355.00;5096985;28;20410;-56
2021/01/12 02:14:17;;;;;;;13.63;10.33;;;;;;;-0.20;78.41;96361.00;5101875;28;20459;-64
2021/01/12 02:16:45;;;;;;;14.70;9.40;;;;;;;-0.22;77.96;96351.81;5116650;28;20991;-56
2021/01/12 02:19:13;;;;;;;14.97;10.33;;;;;;;0.04;78.19;96346.50;5116680;28;20442;-64
2021/01/12 02:21:45;;;;;;;13.03;9.67;;;;;;;0.03;77.70;96342.28;5115142;28;20425;-63
2021/01/12 02:24:10;;;;;;;13.80;9.07;;;;;;;0.00;77.62;96326.16;5116798;28;20846;-56
2021/01/12 02:26:36;;;;;;;15.77;10.00;;;;;;;-0.31;79.36;96324.38;5114569;28;20472;-56
2021/01/12 02:29:02;;;;;;;11.87;8.63;;;;;;;-0.01;77.96;96318.56;5110771;28;20272;-64
2021/01/12 02:31:31;;;;;;;15.97;10.27;;;;;;;0.07;78.16;96317.78;5105500;28;20205;-56
2021/01/12 02:34:00;;;;;;;13.83;10.10;;;;;;;0.06;78.26;96318.72;5114811;28;20193;-64
2021/01/12 02:36:28;;;;;;;12.87;8.47;;;;;;;0.18;77.50;96309.69;5115965;28;20426;-64
2021/01/12 02:38:54;;;;;;;11.33;8.90;;;;;;;0.16;78.06;96306.47;5116489;28;20460;-56
2021/01/12 02:41:19;;;;;;;12.70;9.57;;;;;;;0.23;77.44;96302.25;5108828;28;20527;-56
2021/01/12 02:43:47;;;;;;;11.83;8.40;;;;;;;0.52;76.83;96298.19;5104809;28;20192;-64
2021/01/12 02:46:14;;;;;;;12.10;8.00;;;;;;;0.19;76.76;96304.38;5114632;28;20177;-64
2021/01/12 02:48:40;;;;;;;11.87;8.40;;;;;;;0.33;77.40;96292.56;5111545;28;20420;-64
2021/01/12 02:51:05;;;;;;;12.77;8.47;;;;;;;0.22;77.04;96287.75;5095790;28;20436;-56
2021/01/12 02:53:31;;;;;;;12.83;8.57;;;;;;;0.56;76.46;96285.75;5096049;28;20667;-56
2021/01/12 02:55:56;;;;;;;14.40;8.60;;;;;;;0.43;76.40;96286.25;5095880;28;20170;-64
2021/01/12 02:58:22;;;;;;;11.70;7.50;;;;;;;0.37;76.84;96276.56;5095539;28;20528;-56
2021/01/12 03:00:47;;;;;;;10.60;7.47;;;;;;;0.13;78.47;96271.44;5096439;28;20300;-56
2021/01/12 03:03:13;;;;;;;10.03;7.30;;;;;;;0.35;77.19;96268.19;5096678;28;20181;-56
2021/01/12 03:05:38;;;;;;;10.33;7.10;;;;;;;0.34;77.38;96269.16;5096639;28;20651;-64
2021/01/12 03:08:03;;;;;;;9.83;7.50;;;;;;;0.40;77.98;96260.72;5095294;28;20166;-56
2021/01/12 03:10:29;;;;;;;10.03;7.70;;;;;;;0.47;77.14;96261.69;5094813;28;20540;-64
2021/01/12 03:12:54;;;;;;;10.23;7.73;;;;;;;0.31;77.50;96258.34;5115237;28;20177;-56
2021/01/12 03:15:19;;;;;;;8.43;5.97;;;;;;;0.10;77.76;96253.69;5115806;28;20204;-56
2021/01/12 03:17:45;;;;;;;7.43;5.80;;;;;;;0.22;78.48;96243.84;5115387;28;20264;-65
2021/01/12 03:20:11;;;;;;;10.70;7.30;;;;;;;0.47;77.30;96230.66;5104195;28;20207;-64
2021/01/12 03:22:36;;;;;;;11.63;6.80;;;;;;;0.41;77.58;96228.78;5095254;28;20616;-64
2021/01/12 03:25:02;;;;;;;11.27;7.30;;;;;;;0.44;77.85;96232.78;5095273;28;20404;-64
2021/01/12 03:27:27;;;;;;;9.80;7.20;;;;;;;0.50;76.77;96224.38;5094765;28;20656;-56
2021/01/12 03:29:53;;;;;;;8.73;7.53;;;;;;;0.40;77.93;96219.41;5095087;28;20898;-57
2021/01/12 03:32:18;;;;;;;10.33;7.10;;;;;;;0.44;77.57;96214.69;5095134;28;20166;-64
2021/01/12 03:34:43;;;;;;;10.50;7.60;;;;;;;0.73;77.88;96210.56;5107754;28;20261;-57
2021/01/12 03:37:09;;;;;;;10.43;7.30;;;;;;;0.98;76.12;96204.28;5110602;28;20232;-64
2021/01/12 03:39:34;;;;;;;8.47;6.87;;;;;;;1.05;75.46;96205.22;5115388;28;20207;-56
2021/01/12 03:41:59;;;;;;;9.67;6.57;;;;;;;0.73;77.57;96191.66;5115241;28;20177;-64
2021/01/12 03:44:25;;;;;;;10.63;6.80;;;;;;;0.33;79.08;96184.88;5115673;28;20523;-56
2021/01/12 03:46:50;;;;;;;8.07;5.87;;;;;;;0.32;80.21;96178.09;5114900;28;20256;-56
2021/01/12 03:49:15;;;;;;;9.40;6.63;;;;;;;0.58;79.87;96175.25;5113181;28;20170;-55
2021/01/12 03:51:41;;;;;;;10.40;6.67;;;;;;;0.53;80.46;96183.50;5099427;28;20188;-64
2021/01/12 03:54:06;;;;;;;8.50;6.03;;;;;;;0.31;81.78;96179.06;5094660;28;20198;-56
2021/01/12 03:56:31;;;;;;;8.20;6.00;;;;;;;0.64;80.56;96166.81;5094354;28;20178;-64
2021/01/12 03:58:57;;;;;;;8.50;6.60;;;;;;;0.47;81.40;96163.50;5099773;28;20180;-65
2021/01/12 04:01:23;;;;;;;9.57;6.60;;;;;;;0.30;82.20;96156.81;5104114;28;20256;-56
2021/01/12 04:03:48;;;;;;;9.30;6.50;;;;;;;0.45;82.03;96149.97;5094826;28;20307;-57
2021/01/12 04:06:15;;;;;;;8.10;6.20;;;;;;;0.35;81.37;96161.44;5094479;28;20416;-56
2021/01/12 04:08:43;;;;;;;11.33;6.57;;;;;;;0.42;82.60;96141.72;5094197;28;20166;-64
2021/01/12 04:11:09;;;;;;;9.17;6.10;;;;;;;0.49;82.40;96140.09;5100966;28;20497;-56
2021/01/12 04:13:35;;;;;;;8.50;6.20;;;;;;;0.49;82.26;96133.13;5114750;28;20492;-56
2021/01/12 04:16:02;;;;;;;6.93;5.60;;;;;;;0.38;82.11;96130.13;5104455;28;20884;-64
2021/01/12 04:18:27;;;;;;;9.73;6.70;;;;;;;0.61;82.37;96121.47;5094801;28;20184;-64
2021/01/12 04:20:53;;;;;;;6.90;5.40;;;;;;;0.51;83.02;96123.44;5094216;28;20424;-63
2021/01/12 04:23:18;;;;;;;8.93;5.87;;;;;;;0.43;83.77;96118.31;5094041;28;20209;-56
2021/01/12 04:25:43;;;;;;;7.03;5.70;;;;;;;0.44;83.42;96119.91;5094175;28;20168;-64
2021/01/12 04:28:09;;;;;;;6.70;4.90;;;;;;;0.37;83.99;96107.84;5093715;28;20168;-64
2021/01/12 04:30:34;;;;;;;9.17;6.23;;;;;;;0.34;83.29;96132.25;5094796;28;20721;-64
2021/01/12 04:32:59;;;;;;;8.47;6.20;;;;;;;0.33;84.17;96104.78;5108313;28;20736;-56
2021/01/12 04:35:25;;;;;;;7.97;6.27;;;;;;;0.33;83.46;96114.31;5112411;28;20262;-56
2021/01/12 04:37:50;;;;;;;5.33;4.57;;;;;;;0.36;82.95;96104.47;5113782;28;20180;-56
2021/01/12 04:40:15;;;;;;;9.40;6.83;;;;;;;0.37;82.77;96121.56;5113894;28;20221;-56
2021/01/12 04:42:42;;;;;;;9.17;6.37;;;;;;;0.06;84.17;96100.06;5114410;28;20201;-56
2021/01/12 04:45:09;;;;;;;9.10;6.00;;;;;;;0.20;83.88;96104.53;5097036;28;20181;-64
2021/01/12 04:47:34;;;;;;;8.97;6.47;;;;;;;0.16;84.27;96098.13;5113857;28;20506;-56
2021/01/12 04:50:02;;;;;;;9.17;6.70;;;;;;;0.36;83.02;96098.50;5113888;28;20525;-63
2021/01/12 04:52:27;;;;;;;10.03;6.77;;;;;;;0.15;83.76;96096.47;5113001;28;20173;-56
2021/01/12 04:54:53;;;;;;;7.60;5.13;;;;;;;0.24;83.36;96123.06;5113762;28;20461;-57
2021/01/12 04:57:19;;;;;;;10.77;6.53;;;;;;;0.19;83.43;96102.94;5113605;28;20252;-56
2021/01/12 04:59:44;;;;;;;9.60;6.40;;;;;;;0.02;84.38;96091.03;5110304;28;20526;-64
2021/01/12 05:02:13;;;;;;;6.77;5.40;;;;;;;0.15;84.42;96086.16;5106522;28;20264;-63
2021/01/12 05:04:40;;;;;;;9.47;6.07;;;;;;;0.07;85.09;96085.41;5108514;28;20535;-56
2021/01/12 05:07:07;;;;;;;7.63;5.23;;;;;;;0.15;84.58;96082.75;5113488;28;20545;-56
2021/01/12 05:09:33;;;;;;;11.07;7.23;;;;;;;0.17;84.57;96086.78;5113934;28;20484;-56
2021/01/12 05:12:00;;;;;;;12.13;8.07;;;;;;;0.20;84.32;96085.66;5113912;28;20863;-56
2021/01/12 05:14:27;;;;;;;8.80;6.10;;;;;;;0.23;85.27;96073.22;5106994;28;20459;-56
2021/01/12 05:16:55;;;;;;;9.83;6.77;;;;;;;0.27;85.44;96084.00;5093120;28;20412;-64
2021/01/12 05:19:28;;;;;;;8.70;5.70;;;;;;;0.20;85.01;96077.91;5103100;28;20449;-64
2021/01/12 05:21:58;;;;;;;6.53;5.53;;;;;;;0.16;85.86;96074.06;5112589;28;20933;-56
2021/01/12 05:24:25;;;;;;;12.03;7.50;;;;;;;0.29;86.37;96074.31;5113933;28;20400;-63
2021/01/12 05:26:51;;;;;;;10.93;7.07;;;;;;;0.34;85.69;96069.44;5113304;28;20961;-56
2021/01/12 05:29:17;;;;;;;11.07;7.10;;;;;;;0.38;85.59;96068.13;5113899;28;20407;-56
2021/01/12 05:31:46;;;;;;;10.13;7.20;;;;;;;0.49;85.77;96065.16;5110865;28;20481;-56
2021/01/12 05:34:13;;;;;;;8.50;5.60;;;;;;;0.41;85.83;96065.22;5112965;28;20208;-56
2021/01/12 05:36:48;;;;;;;9.67;6.27;;;;;;;0.51;85.63;96066.59;5115611;28;20962;-56
2021/01/12 05:39:22;;;;;;;9.63;7.50;;;;;;;0.54;85.49;96057.69;5117672;28;20417;-64
2021/01/12 05:41:49;;;;;;;11.03;7.50;;;;;;;0.65;85.41;96052.94;5117623;28;20946;-56
2021/01/12 05:44:16;;;;;;;8.70;6.80;;;;;;;0.67;85.10;96057.94;5117601;28;20497;-64
2021/01/12 05:46:47;;;;;;;11.37;7.00;;;;;;;0.69;86.52;96040.50;5115036;28;20426;-56
2021/01/12 05:49:12;;;;;;;10.10;6.60;;;;;;;0.58;86.48;96066.72;5106734;28;20510;-56
2021/01/12 05:51:45;;;;;;;10.33;6.43;;;;;;;0.66;87.46;96040.81;5104101;28;20909;-57
2021/01/12 05:54:26;;;;;;;8.90;6.00;;;;;;;0.60;87.81;96026.00;5104400;28;20198;-56
2021/01/12 05:56:56;;;;;;;11.13;6.80;;;;;;;0.68;87.53;96031.94;5096543;28;20402;-64
2021/01/12 05:59:31;;;;;;;6.13;5.20;;;;;;;0.60;88.40;96026.81;5096900;28;20396;-65
2021/01/12 06:01:58;;;;;;;8.43;5.97;;;;;;;0.61;88.46;96023.25;5096883;28;20408;-56
2021/01/12 06:04:24;;;;;;;5.60;4.00;;;;;;;0.69;89.12;96022.41;5097787;28;20442;-64
2021/01/12 06:06:55;;;;;;;7.97;6.23;;;;;;;0.70;89.00;96000.72;5101168;28;20482;-56
2021/01/12 06:09:21;;;;;;;8.70;5.70;;;;;;;0.79;89.01;96026.34;5117002;28;20403;-56
2021/01/12 06:11:49;;;;;;;8.00;6.30;;;;;;;0.64;90.71;96004.00;5117018;28;20407;-56
2021/01/12 06:14:21;;;;;;;9.23;5.50;;;;;;;0.68;90.14;96011.25;5114984;28;20509;-64
2021/01/12 06:16:48;;;;;;;7.93;4.90;;;;;;;0.73;90.35;96018.47;5116680;28;20463;-57
2021/01/12 06:19:18;;;;;;;5.03;4.40;;;;;;;0.65;90.27;96014.16;5106081;28;20449;-65
2021/01/12 06:21:53;;;;;;;6.67;5.27;;;;;;;0.61;91.40;96015.50;5102898;28;20423;-56
2021/01/12 06:24:24;;;;;;;7.17;5.50;;;;;;;0.78;89.75;96013.59;5117062;28;20403;-56
2021/01/12 06:26:53;;;;;;;7.87;5.70;;;;;;;0.78;89.90;96021.34;5116601;28;20400;-64
2021/01/12 06:29:19;;;;;;;7.70;6.03;;;;;;;0.87;90.17;96004.81;5115174;28;20403;-65
2021/01/12 06:31:49;;;;;;;8.43;5.43;;;;;;;0.92;89.37;96002.50;5114436;28;20540;-63
2021/01/12 06:34:19;;;;;;;7.17;5.73;;;;;;;0.91;90.04;95990.53;5096335;28;20456;-57
2021/01/12 06:36:54;;;;;;;8.10;6.23;;;;;;;1.04;88.65;95988.16;5104679;28;20411;-57
2021/01/12 06:39:34;;;;;;;7.33;5.90;;;;;;;0.94;89.50;95979.84;5116599;28;20408;-57
2021/01/12 06:42:04;;;;;;;6.00;4.37;;;;;;;0.78;89.99;95982.59;5116019;28;20415;-64
2021/01/12 06:44:32;;;;;;;7.57;6.10;;;;;;;0.67;91.29;95976.03;5114481;28;20403;-64
2021/01/12 06:46:58;;;;;;;7.30;5.13;;;;;;;0.90;89.58;95970.84;5111187;28;20415;-61
2021/01/12 06:49:25;;;;;;;7.87;5.37;;;;;;;1.07;88.80;95966.31;5116157;28;20886;-57
2021/01/12 06:52:01;;;;;;;6.93;5.23;;;;;;;1.10;89.29;95963.38;5116433;28;20570;-56
2021/01/12 06:54:33;;;;;;;6.67;5.43;;;;;;;0.98;90.00;95958.63;5116816;28;20542;-64
2021/01/12 06:57:28;;;;;;;7.37;5.17;;;;;;;0.90;90.02;95966.47;5114497;28;20460;-57
2021/01/12 06:59:55;;;;;;;6.90;4.77;;;;;;;1.13;89.40;95943.13;5099680;28;20993;-65
2021/01/12 07:02:24;;;;;;;8.60;5.40;;;;;;;1.08;89.90;95949.81;5103000;28;20503;-64
2021/01/12 07:04:58;;;;;;;9.90;5.57;;;;;;;1.02;89.87;95956.50;5095747;28;20445;-57
2021/01/12 07:07:26;;;;;;;9.17;6.53;;;;;;;1.18;89.52;95953.72;5096488;28;20447;-57
2021/01/12 07:10:05;;;;;;;7.17;5.30;;;;;;;1.14;89.84;95949.91;5095377;28;20526;-64
2021/01/12 07:12:30;;;;;;;8.57;5.27;;;;;;;1.23;89.19;95940.28;5095603;28;20897;-56
2021/01/12 07:14:58;;;;;;;7.50;5.90;;;;;;;1.12;90.14;95930.38;5095496;28;20446;-57
2021/01/12 07:17:39;;;;;;;5.87;4.80;;;;;;;1.12;90.78;95943.31;5105822;28;20235;-64
2021/01/12 07:20:11;;;;;;;5.47;3.90;;;;;;;1.00;91.24;95922.25;5115875;28;20416;-64
2021/01/12 07:22:38;;;;;;;6.60;5.50;;;;;;;1.10;91.42;95929.75;5115869;28;20518;-56
2021/01/12 07:25:09;;;;;;;6.53;5.30;;;;;;;0.98;92.28;95930.19;5115763;28;20404;-57
2021/01/12 07:27:35;;;;;;;5.37;4.60;;;;;;;1.03;91.64;95921.91;5103076;28;20957;-64
2021/01/12 07:30:06;;;;;;;9.07;6.03;;;;;;;1.31;90.67;95909.94;5094904;28;20445;-64
2021/01/12 07:32:31;;;;;;;8.93;4.90;;;;;;;1.27;90.39;95905.31;5096078;28;20303;-57
2021/01/12 07:35:05;;;;;;;6.90;4.47;;;;;;;1.16;92.20;95905.75;5095000;28;20587;-56
2021/01/12 07:37:33;;;;;;;6.57;4.57;;;;;;;1.12;92.55;95915.66;5094634;28;20166;-64
2021/01/12 07:39:59;;;;;;;7.73;5.53;;;;;;;0.99;93.30;95903.38;5095071;28;20425;-64
2021/01/12 07:42:25;;;;;;;9.93;6.00;;;;;;;1.10;92.94;95919.41;5106753;28;20450;-56
2021/01/12 07:44:51;;;;;;;5.23;4.40;;;;;;;0.98;94.01;95903.50;5115133;28;20459;-56
2021/01/12 07:47:17;;;;;;;6.10;3.83;;;;;;;1.09;93.86;95886.78;5112995;28;20207;-56
2021/01/12 07:49:42;;;;;;;6.97;5.00;;;;;;;1.24;93.51;95898.72;5114494;28;20801;-63
2021/01/12 07:52:09;;;;;;;7.10;5.90;;;;;;;1.22;93.94;95910.19;5115247;28;20704;-64
2021/01/12 07:54:35;;;;;;;6.33;5.40;;;;;;;1.21;94.41;95909.41;5115101;27;20534;-63
2021/01/12 07:57:01;;;;;;;7.67;6.07;;;;;;;1.28;94.27;95905.13;5103209;28;20450;-63
2021/01/12 07:59:27;;;;;;;6.27;4.60;;;;;;;1.16;94.09;95909.13;5095412;28;20441;-56
2021/01/12 08:01:53;;;;;;;8.60;5.30;;;;;;;1.40;93.99;95893.34;5094575;28;20404;-55
2021/01/12 08:04:19;;;;;;;6.73;5.07;;;;;;;1.21;94.28;95893.91;5094510;28;20452;-64
2021/01/12 08:06:47;;;;;;;6.70;4.60;;;;;;;1.33;93.90;95891.66;5094263;28;20445;-56
2021/01/12 08:09:24;;;;;;;4.93;4.00;;;;;;;1.20;94.23;95889.69;5094464;28;20181;-56
2021/01/12 08:12:05;;;;;;;5.33;4.37;;;;;;;1.37;94.09;95888.53;5105507;28;20431;-56
2021/01/12 08:14:30;;;;;;;4.20;3.27;;;;;;;1.45;93.39;95895.41;5097418;28;20456;-64
2021/01/12 08:16:57;;;;;;;5.70;4.67;;;;;;;1.52;93.45;95899.63;5103457;28;20477;-65
2021/01/12 08:19:25;;;;;;;7.00;5.33;;;;;;;1.56;93.68;95897.53;5111606;28;20415;-64
2021/01/12 08:21:54;;;;;;;6.60;5.27;;;;;;;1.62;93.74;95881.25;5094087;28;20527;-64
2021/01/12 08:24:24;;;;;;;6.00;4.37;;;;;;;1.49;94.37;95881.91;5094077;28;20449;-64
2021/01/12 08:26:50;;;;;;;7.50;5.10;;;;;;;1.59;94.35;95884.22;5094742;28;20923;-55
2021/01/12 08:29:26;;;;;;;8.37;4.93;;;;;;;1.52;95.26;95875.56;5110910;28;20415;-56
2021/01/12 08:32:07;;;;;;;6.63;4.00;;;;;;;1.55;96.33;95873.41;5102879;28;20440;-64
2021/01/12 08:34:45;;;;;;;6.60;4.87;;;;;;;1.62;96.63;95869.13;5095053;28;20451;-64
2021/01/12 08:37:13;;;;;;;4.87;3.83;;;;;;;1.59;96.46;95872.06;5093494;28;20433;-64
2021/01/12 08:39:38;;;;;;;5.97;4.63;;;;;;;1.69;96.28;95882.94;5099312;28;20461;-64
2021/01/12 08:42:08;;;;;;;5.83;5.07;;;;;;;1.60;97.27;95880.63;5112532;28;20906;-64
2021/01/12 08:44:37;;;;;;;7.33;5.00;;;;;;;1.70;97.50;95874.16;5114240;28;20649;-56
2021/01/12 08:47:06;;;;;;;4.80;3.80;;;;;;;1.61;97.38;95880.44;5113737;28;20480;-64
2021/01/12 08:49:33;;;;;;;6.80;4.63;;;;;;;1.74;97.92;95883.19;5111247;28;20957;-55
2021/01/12 08:52:01;;;;;;;5.50;4.53;;;;;;;1.74;97.27;95867.63;5100690;28;20518;-55
2021/01/12 08:54:27;;;;;;;6.67;5.07;;;;;;;1.88;96.35;95859.00;5097509;28;20901;-65
2021/01/12 08:57:01;;;;;;;5.90;4.50;;;;;;;1.87;96.79;95862.59;5113268;28;20503;-65
2021/01/12 08:59:33;;;;;;;7.10;4.50;;;;;;;1.82;97.45;95864.16;5114046;28;20199;-64
2021/01/12 09:02:02;;;;;;;5.97;5.20;;;;;;;1.91;98.22;95874.22;5114212;28;20397;-64
2021/01/12 09:04:28;;;;;;;4.00;3.17;;;;;;;1.97;97.08;95864.91;5112725;28;20412;-59
2021/01/12 09:07:01;;;;;;;4.80;3.90;;;;;;;2.19;96.65;95861.31;5113504;28;20783;-59
2021/01/12 09:09:27;;;;;;;2.63;2.30;;;;;;;2.24;96.16;95852.97;5103026;28;20442;-59
2021/01/12 09:11:53;;;;;;;2.87;2.57;;;;;;;2.20;96.03;95885.41;5093617;28;20883;-58
2021/01/12 09:14:22;;;;;;;2.07;1.83;;;;;;;2.23;96.41;95856.56;5093313;28;20196;-59
2021/01/12 09:16:53;;;;;;;2.47;1.73;;;;;;;2.30;96.59;95860.00;5092983;28;20413;-58
2021/01/12 09:19:19;;;;;;;1.20;1.10;;;;;;;2.24;96.08;95868.53;5090918;28;21091;-64
2021/01/12 09:21:45;;;;;;;1.60;1.50;;;;;;;2.21;96.89;95855.94;5090859;28;20485;-59
2021/01/12 09:24:20;;;;;;;2.20;1.50;;;;;;;2.36;96.47;95843.69;5097252;28;20543;-64
2021/01/12 09:26:47;;;;;;;1.33;1.23;;;;;;;2.30;96.55;95853.03;5109039;28;20425;-56
2021/01/12 09:29:12;;;;;;;1.43;1.33;;;;;;;2.38;95.76;95854.69;5110058;28;20415;-57
2021/01/12 09:31:43;;;;;;;1.67;1.57;;;;;;;2.43;95.44;95834.22;5109574;28;20475;-64
2021/01/12 09:34:08;;;;;;;1.57;1.47;;;;;;;2.26;97.05;95849.22;5108356;28;20230;-57
2021/01/12 09:36:33;;;;;;;1.33;1.30;;;;;;;2.32;96.48;95845.09;5109732;28;20442;-62
2021/01/12 09:39:03;;;;;;;2.00;1.80;;;;;;;2.26;97.11;95838.06;5101538;28;20184;-63
2021/01/12 09:41:28;;;;;;;1.90;1.70;;;;;;;2.39;97.36;95836.34;5102354;28;20206;-59
2021/01/12 09:43:55;;;;;;;1.97;1.43;;;;;;;2.32;97.19;95842.50;5103466;28;20441;-68
2021/01/12 09:46:21;;;;;;;2.27;1.80;;;;;;;2.23;98.37;95834.03;5102750;28;20195;-61
2021/01/12 09:48:49;;;;;;;6.27;4.20;;;;;;;2.31;98.58;95852.03;5117736;28;20432;-62
2021/01/12 09:51:14;;;;;;;4.07;2.50;;;;;;;2.33;99.46;95844.09;5089469;28;21008;-55
2021/01/12 09:53:41;;;;;;;2.03;1.53;;;;;;;2.25;99.18;95832.06;5089514;28;20409;-59
2021/01/12 09:56:10;;;;;;;1.20;1.20;;;;;;;2.09;100.00;95835.72;5089157;28;20642;-55
2021/01/12 09:58:36;;;;;;;1.87;1.77;;;;;;;2.04;100.00;95832.91;5101383;28;20786;-57
2021/01/12 10:01:01;;;;;;;3.37;3.17;;;;;;;2.18;100.00;95832.97;5109771;28;20441;-59
2021/01/12 10:03:27;;;;;;;2.67;1.43;;;;;;;2.17;100.00;95821.03;5107854;28;20173;-56
2021/01/12 10:05:52;;;;;;;2.50;2.40;;;;;;;2.09;100.00;95822.78;5109774;28;20892;-57
2021/01/12 10:08:18;;;;;;;1.33;1.23;;;;;;;1.96;100.00;95852.91;5108164;28;20182;-58
2021/01/12 10:10:43;;;;;;;1.77;1.67;;;;;;;2.11;100.00;95825.16;5109663;28;20208;-56
2021/01/12 10:13:08;;;;;;;1.50;1.40;;;;;;;2.14;100.00;95837.75;5112940;28;20252;-55
2021/01/12 10:15:34;;;;;;;1.77;1.67;;;;;;;2.06;100.00;95843.88;5092834;28;20205;-65
2021/01/12 10:17:59;;;;;;;2.37;2.27;;;;;;;1.98;100.00;95819.88;5093530;28;20180;-64
2021/01/12 10:20:25;;;;;;;1.80;1.70;;;;;;;1.97;100.00;95813.09;5094627;28;20196;-65
2021/01/12 10:22:50;;;;;;;3.50;3.30;;;;;;;1.94;100.00;95821.22;5096467;28;20178;-56
2021/01/12 10:25:15;;;;;;;1.70;1.60;;;;;;;1.81;100.00;95800.41;5096446;28;20243;-56
2021/01/12 10:27:41;;;;;;;1.43;1.33;;;;;;;1.83;100.00;95804.41;5096109;28;20540;-61
2021/01/12 10:30:09;;;;;;;1.70;1.60;;;;;;;1.83;100.00;95826.91;5096265;28;20706;-56
2021/01/12 10:32:35;;;;;;;1.10;1.00;;;;;;;1.83;100.00;95812.16;5098954;28;20182;-55
2021/01/12 10:35:01;;;;;;;3.93;1.37;;;;;;;1.88;100.00;95796.09;5116497;28;20498;-56
2021/01/12 10:37:29;;;;;;;1.00;1.00;;;;;;;1.88;100.00;95796.09;5115869;28;20178;-61
2021/01/12 10:39:55;;;;;;;1.07;1.00;;;;;;;1.92;100.00;95800.69;5116408;28;20455;-61
2021/01/12 10:42:21;;;;;;;1.73;1.00;;;;;;;1.90;100.00;95802.66;5096309;28;20425;-62
2021/01/12 10:44:47;;;;;;;0.83;0.83;;;;;;;1.86;100.00;95796.28;5096312;28;20401;-61
2021/01/12 10:47:12;;;;;;;1.47;1.10;;;;;;;1.90;100.00;95781.16;5095978;28;20433;-56
2021/01/12 10:49:38;;;;;;;1.30;1.20;;;;;;;1.92;100.00;95805.09;5103869;28;20197;-56
2021/01/12 10:52:06;;;;;;;0.63;0.63;;;;;;;1.95;100.00;95784.00;5116354;28;20174;-61
2021/01/12 10:54:32;;;;;;;1.60;1.50;;;;;;;2.02;100.00;95775.28;5116184;28;20535;-61
2021/01/12 10:56:58;;;;;;;1.33;1.00;;;;;;;1.97;100.00;95779.44;5114189;28;20473;-61
2021/01/12 10:59:26;;;;;;;1.40;1.30;;;;;;;2.08;100.00;95761.56;5104088;28;20417;-56
2021/01/12 11:02:01;;;;;;;2.30;2.10;;;;;;;2.13;100.00;95768.00;5109235;28;20191;-61
2021/01/12 11:04:26;;;;;;;1.47;1.37;;;;;;;1.99;100.00;95773.06;5094519;28;20421;-62
2021/01/12 11:06:54;;;;;;;4.10;1.30;;;;;;;1.98;100.00;95775.84;5095107;28;20416;-61
2021/01/12 11:09:20;;;;;;;0.70;0.70;;;;;;;2.03;100.00;95766.53;5095403;28;20162;-56
2021/01/12 11:11:48;;;;;;;1.47;1.37;;;;;;;2.07;100.00;95748.81;5095575;28;20447;-56
2021/01/12 11:14:20;;;;;;;1.27;1.07;;;;;;;1.91;100.00;95757.66;5095460;28;20194;-56
2021/01/12 11:16:46;;;;;;;1.10;1.00;;;;;;;2.01;100.00;95741.81;5096110;28;20436;-56
2021/01/12 11:19:12;;;;;;;0.80;0.80;;;;;;;2.00;100.00;95741.00;5110108;28;20424;-57
2021/01/12 11:21:46;;;;;;;1.43;1.07;;;;;;;2.06;100.00;95736.88;5115767;28;20166;-56
2021/01/12 11:24:14;;;;;;;1.10;0.80;;;;;;;1.98;100.00;95727.44;5098142;28;20416;-57
2021/01/12 11:26:41;;;;;;;0.63;0.63;;;;;;;1.85;100.00;95732.50;5094877;28;20417;-62
2021/01/12 11:29:07;;;;;;;3.17;0.77;;;;;;;1.86;100.00;95728.97;5096071;28;20929;-59
2021/01/12 11:31:32;;;;;;;2.37;0.90;;;;;;;1.84;100.00;95717.97;5094213;28;20433;-62
2021/01/12 11:33:58;;;;;;;1.00;0.73;;;;;;;1.85;100.00;95722.16;5094936;28;20204;-56
2021/01/12 11:36:24;;;;;;;0.80;0.70;;;;;;;1.95;100.00;95717.47;5094777;28;20181;-57